Time;durP1;ratioP1;P1;durP2;ratioP2;P2;SDS_P1;SDS_P2;PMS_P1;PMS_P2;Temp;Humidity;BMP_temperature;BMP_pressure;BME280_temperature;BME280_humidity;BME280_pressure;Samples;Min_cycle;Max_cycle;Signal;HPM_P1;HPM_P2
2023/07/20 00:01:04;;;;;;;4.60;2.15;;;;;;;;;;5016702;28;20259;-74
2023/07/20 00:03:29;;;;;;;6.90;2.20;;;;;;;;;;5016719;28;20022;-74
2023/07/20 00:05:54;;;;;;;4.32;2.40;;;;;;;;;;5014708;28;20026;-73
2023/07/20 00:08:20;;;;;;;4.63;2.10;;;;;;;;;;5015440;28;20026;-71
2023/07/20 00:10:45;;;;;;;5.10;2.30;;;;;;;;;;5015392;28;20041;-75
2023/07/20 00:13:11;;;;;;;3.92;2.33;;;;;;;;;;5015215;28;20032;-74
2023/07/20 00:15:37;;;;;;;6.55;2.25;;;;;;;;;;5014470;28;20025;-74
2023/07/20 00:18:03;;;;;;;5.03;2.08;;;;;;;;;;5014809;28;20485;-73
2023/07/20 00:20:28;;;;;;;4.15;2.28;;;;;;;;;;5015331;28;20076;-75
2023/07/20 00:22:54;;;;;;;2.60;1.90;;;;;;;;;;5015389;28;20072;-75
2023/07/20 00:25:20;;;;;;;6.57;1.98;;;;;;;;;;5015479;28;20026;-74
2023/07/20 00:27:45;;;;;;;4.63;1.88;;;;;;;;;;5014964;28;20362;-74
2023/07/20 00:30:11;;;;;;;2.60;1.97;;;;;;;;;;5013970;28;20045;-74
2023/07/20 00:32:36;;;;;;;2.90;2.00;;;;;;;;;;5015112;28;20755;-74
2023/07/20 00:35:01;;;;;;;3.60;2.17;;;;;;;;;;5014181;28;20025;-72
2023/07/20 00:37:26;;;;;;;3.30;1.88;;;;;;;;;;5015402;28;20030;-73
2023/07/20 00:39:52;;;;;;;6.30;2.27;;;;;;;;;;5015835;28;20438;-73
2023/07/20 00:42:18;;;;;;;3.85;1.80;;;;;;;;;;5015051;28;20251;-72
2023/07/20 00:44:43;;;;;;;3.95;1.98;;;;;;;;;;5013047;28;20512;-72
2023/07/20 00:47:08;;;;;;;4.03;1.60;;;;;;;;;;5015146;28;20084;-73
2023/07/20 00:49:34;;;;;;;4.85;1.80;;;;;;;;;;5014385;28;20278;-71
2023/07/20 00:52:01;;;;;;;2.72;1.73;;;;;;;;;;5014879;28;20029;-74
2023/07/20 00:54:27;;;;;;;3.97;1.70;;;;;;;;;;5014588;28;20441;-74
2023/07/20 00:56:53;;;;;;;3.45;1.90;;;;;;;;;;5013373;28;20026;-74
2023/07/20 00:59:18;;;;;;;2.33;1.70;;;;;;;;;;5014380;28;20389;-74
2023/07/20 01:01:44;;;;;;;2.47;1.70;;;;;;;;;;5014341;28;20085;-75
2023/07/20 01:04:09;;;;;;;5.78;1.70;;;;;;;;;;5014314;28;20036;-74
2023/07/20 01:07:00;;;;;;;2.63;1.60;;;;;;;;;;5014454;28;20030;-72
2023/07/20 01:09:37;;;;;;;2.78;1.45;;;;;;;;;;5013273;28;20091;-74
2023/07/20 01:12:05;;;;;;;2.58;1.60;;;;;;;;;;5015089;28;20045;-74
2023/07/20 01:14:31;;;;;;;2.65;1.20;;;;;;;;;;5014954;28;20026;-73
2023/07/20 01:16:57;;;;;;;2.60;1.20;;;;;;;;;;5014535;28;20036;-74
2023/07/20 01:19:22;;;;;;;1.77;1.33;;;;;;;;;;5015175;28;20029;-74
2023/07/20 01:22:01;;;;;;;2.42;1.40;;;;;;;;;;5014248;28;20416;-74
2023/07/20 01:25:07;;;;;;;3.47;1.33;;;;;;;;;;5014738;28;20121;-74
2023/07/20 01:27:48;;;;;;;4.45;1.40;;;;;;;;;;5013275;28;20021;-75
2023/07/20 01:30:41;;;;;;;2.83;1.20;;;;;;;;;;5013505;28;20029;-74
2023/07/20 01:33:08;;;;;;;2.10;1.20;;;;;;;;;;5013948;28;20030;-72
2023/07/20 01:35:34;;;;;;;2.90;1.25;;;;;;;;;;5014014;28;20034;-75
2023/07/20 01:38:00;;;;;;;4.13;1.38;;;;;;;;;;5014325;28;20038;-74
2023/07/20 01:40:26;;;;;;;2.08;1.30;;;;;;;;;;5014370;28;20144;-74
2023/07/20 01:42:52;;;;;;;3.95;1.00;;;;;;;;;;5014512;28;20025;-75
2023/07/20 01:45:18;;;;;;;3.53;1.25;;;;;;;;;;5013272;28;20030;-74
2023/07/20 01:47:43;;;;;;;1.95;1.00;;;;;;;;;;5014163;28;20028;-72
2023/07/20 01:50:09;;;;;;;1.52;1.10;;;;;;;;;;5012891;28;20084;-75
2023/07/20 01:52:34;;;;;;;1.40;0.93;;;;;;;;;;5012633;28;20117;-74
2023/07/20 01:54:59;;;;;;;4.78;1.05;;;;;;;;;;5014180;28;20029;-75
2023/07/20 01:57:25;;;;;;;3.83;1.23;;;;;;;;;;5018895;28;20021;-74
2023/07/20 01:59:50;;;;;;;3.53;1.30;;;;;;;;;;5020989;28;20156;-75
2023/07/20 02:02:15;;;;;;;3.10;1.20;;;;;;;;;;5019788;28;20251;-74
2023/07/20 02:04:40;;;;;;;5.18;1.20;;;;;;;;;;5021649;28;20069;-74
2023/07/20 02:07:06;;;;;;;1.20;1.00;;;;;;;;;;5021390;28;20536;-74
2023/07/20 02:09:31;;;;;;;3.58;1.30;;;;;;;;;;5020623;28;20270;-74
2023/07/20 02:11:56;;;;;;;1.88;1.23;;;;;;;;;;5021504;28;20036;-74
2023/07/20 02:14:24;;;;;;;2.10;1.30;;;;;;;;;;5020974;28;20413;-74
2023/07/20 02:16:52;;;;;;;3.42;1.30;;;;;;;;;;5020032;28;20454;-74
2023/07/20 02:19:18;;;;;;;2.70;1.40;;;;;;;;;;5020835;28;20532;-73
2023/07/20 02:21:43;;;;;;;3.40;1.70;;;;;;;;;;5020998;28;20030;-74
2023/07/20 02:24:08;;;;;;;5.55;1.45;;;;;;;;;;5021158;28;20018;-73
2023/07/20 02:26:34;;;;;;;3.10;1.60;;;;;;;;;;5020587;28;20049;-74
2023/07/20 02:28:59;;;;;;;2.47;1.50;;;;;;;;;;5019383;28;20791;-74
2023/07/20 02:31:24;;;;;;;3.15;1.50;;;;;;;;;;5020222;28;20079;-74
2023/07/20 02:33:49;;;;;;;3.37;1.50;;;;;;;;;;5018633;28;20026;-74
2023/07/20 02:36:16;;;;;;;7.00;2.03;;;;;;;;;;5019089;28;20268;-74
2023/07/20 02:38:42;;;;;;;6.10;2.00;;;;;;;;;;5020258;28;20845;-74
2023/07/20 02:41:07;;;;;;;5.38;2.15;;;;;;;;;;5020603;28;20053;-74
2023/07/20 02:43:32;;;;;;;5.37;2.43;;;;;;;;;;5020143;28;20017;-74
2023/07/20 02:45:57;;;;;;;3.70;2.25;;;;;;;;;;5020174;28;20287;-72
2023/07/20 02:48:23;;;;;;;3.70;2.17;;;;;;;;;;5020069;28;20030;-74
2023/07/20 02:50:48;;;;;;;7.03;2.58;;;;;;;;;;5020245;28;20592;-74
2023/07/20 02:53:13;;;;;;;7.18;2.25;;;;;;;;;;5019699;28;20498;-73
2023/07/20 02:55:39;;;;;;;4.67;2.07;;;;;;;;;;5019361;28;20036;-74
2023/07/20 02:58:04;;;;;;;4.55;2.47;;;;;;;;;;5019507;28;20801;-74
2023/07/20 03:00:29;;;;;;;15.17;2.60;;;;;;;;;;5019518;28;20024;-73
2023/07/20 03:02:55;;;;;;;7.50;2.28;;;;;;;;;;5019579;28;20251;-73
2023/07/20 03:05:22;;;;;;;5.55;2.28;;;;;;;;;;5019641;28;20029;-72
2023/07/20 03:07:47;;;;;;;6.88;2.70;;;;;;;;;;5017517;28;20493;-74
2023/07/20 03:10:12;;;;;;;8.65;2.53;;;;;;;;;;5015364;28;20079;-74
2023/07/20 03:12:38;;;;;;;8.60;2.35;;;;;;;;;;5017205;28;20034;-73
2023/07/20 03:15:03;;;;;;;9.07;2.80;;;;;;;;;;5016909;28;20022;-74
2023/07/20 03:17:28;;;;;;;8.20;2.55;;;;;;;;;;5017130;28;20260;-74
2023/07/20 03:19:54;;;;;;;6.43;2.80;;;;;;;;;;5018060;28;20030;-74
2023/07/20 03:22:21;;;;;;;8.27;2.58;;;;;;;;;;5017325;28;20266;-75
2023/07/20 03:24:46;;;;;;;7.65;2.88;;;;;;;;;;5016113;28;20547;-73
2023/07/20 03:27:11;;;;;;;6.90;2.70;;;;;;;;;;5016479;28;20029;-73
2023/07/20 03:29:37;;;;;;;7.18;2.45;;;;;;;;;;5016260;28;20488;-74
2023/07/20 03:32:02;;;;;;;3.92;2.72;;;;;;;;;;5016705;28;20017;-74
2023/07/20 03:34:28;;;;;;;8.73;2.75;;;;;;;;;;5015175;28;20456;-74
2023/07/20 03:36:53;;;;;;;5.78;2.95;;;;;;;;;;5017220;28;20029;-74
2023/07/20 03:39:18;;;;;;;3.92;2.30;;;;;;;;;;5015413;28;20076;-74
2023/07/20 03:41:43;;;;;;;6.38;2.75;;;;;;;;;;5015293;28;20018;-73
2023/07/20 03:44:09;;;;;;;9.77;2.55;;;;;;;;;;5015242;28;20029;-74
2023/07/20 03:46:34;;;;;;;9.03;2.77;;;;;;;;;;5017024;28;20026;-73
2023/07/20 03:49:00;;;;;;;6.33;3.07;;;;;;;;;;5016396;28;20365;-74
2023/07/20 03:51:26;;;;;;;7.00;2.65;;;;;;;;;;5016707;28;20313;-74
2023/07/20 03:53:51;;;;;;;8.63;2.80;;;;;;;;;;5015354;28;20121;-71
2023/07/20 03:56:16;;;;;;;6.72;2.72;;;;;;;;;;5014953;28;20057;-74
2023/07/20 03:58:42;;;;;;;9.82;3.00;;;;;;;;;;5016011;28;20030;-73
2023/07/20 04:01:08;;;;;;;6.20;2.67;;;;;;;;;;5016088;28;20021;-75
2023/07/20 04:03:33;;;;;;;6.18;2.83;;;;;;;;;;5015997;28;20025;-74
2023/07/20 04:05:58;;;;;;;4.72;2.53;;;;;;;;;;5016379;28;20033;-74
2023/07/20 04:08:24;;;;;;;7.18;2.50;;;;;;;;;;5015509;28;20115;-74
2023/07/20 04:10:50;;;;;;;7.32;3.00;;;;;;;;;;5015555;28;20022;-74
2023/07/20 04:13:15;;;;;;;7.13;2.60;;;;;;;;;;5015535;28;20105;-74
2023/07/20 04:15:42;;;;;;;6.05;2.42;;;;;;;;;;5016066;28;20481;-74
2023/07/20 04:18:07;;;;;;;5.18;2.70;;;;;;;;;;5015991;28;20034;-73
2023/07/20 04:20:32;;;;;;;7.40;2.80;;;;;;;;;;5014726;28;20496;-74
2023/07/20 04:22:57;;;;;;;6.10;2.47;;;;;;;;;;5015009;28;20251;-74
2023/07/20 04:25:22;;;;;;;7.65;3.45;;;;;;;;;;5016436;28;20298;-74
2023/07/20 04:27:48;;;;;;;6.00;2.93;;;;;;;;;;5017047;28;20072;-75
2023/07/20 04:30:15;;;;;;;5.90;2.58;;;;;;;;;;5016323;28;20259;-74
2023/07/20 04:32:44;;;;;;;8.15;2.65;;;;;;;;;;5016445;28;20117;-75
2023/07/20 04:35:09;;;;;;;6.47;2.70;;;;;;;;;;5014832;28;20040;-75
2023/07/20 04:37:34;;;;;;;5.45;2.58;;;;;;;;;;5015721;28;20486;-74
2023/07/20 04:39:59;;;;;;;6.47;2.67;;;;;;;;;;5016207;28;20473;-75
2023/07/20 04:42:25;;;;;;;5.87;2.60;;;;;;;;;;5014747;28;20023;-74
2023/07/20 04:44:50;;;;;;;6.05;2.45;;;;;;;;;;5016049;28;20247;-74
2023/07/20 04:47:15;;;;;;;6.75;2.58;;;;;;;;;;5015418;28;20551;-74
2023/07/20 04:49:42;;;;;;;6.90;2.20;;;;;;;;;;5015264;28;20030;-73
2023/07/20 04:52:07;;;;;;;9.27;2.72;;;;;;;;;;5013986;28;20298;-74
2023/07/20 04:54:32;;;;;;;5.45;2.80;;;;;;;;;;5015027;28;20030;-74
2023/07/20 04:56:58;;;;;;;8.13;3.15;;;;;;;;;;5015166;28;20108;-75
2023/07/20 04:59:23;;;;;;;7.28;3.03;;;;;;;;;;5015349;28;20026;-74
2023/07/20 05:01:48;;;;;;;8.52;2.95;;;;;;;;;;5015402;28;20048;-75
2023/07/20 05:04:13;;;;;;;9.02;3.47;;;;;;;;;;5015619;28;20029;-75
2023/07/20 05:06:39;;;;;;;8.87;3.10;;;;;;;;;;5013942;28;20024;-73
2023/07/20 05:09:07;;;;;;;9.70;3.43;;;;;;;;;;5014922;28;20346;-75
2023/07/20 05:11:33;;;;;;;7.18;3.47;;;;;;;;;;5015017;28;20271;-74
2023/07/20 05:13:58;;;;;;;7.50;3.20;;;;;;;;;;5014951;28;20076;-75
2023/07/20 05:16:23;;;;;;;5.23;3.10;;;;;;;;;;5014599;28;20026;-74
2023/07/20 05:18:48;;;;;;;9.38;3.58;;;;;;;;;;5014702;28;20298;-74
2023/07/20 05:21:13;;;;;;;7.33;2.93;;;;;;;;;;4997082;28;20022;-74
2023/07/20 05:23:39;;;;;;;5.40;3.13;;;;;;;;;;5015306;28;20342;-74
2023/07/20 05:26:04;;;;;;;7.13;3.40;;;;;;;;;;5015257;28;20255;-75
2023/07/20 05:28:32;;;;;;;10.40;3.37;;;;;;;;;;5015048;28;20040;-74
2023/07/20 05:30:59;;;;;;;10.05;3.47;;;;;;;;;;5013168;28;20297;-75
2023/07/20 05:33:24;;;;;;;9.07;2.90;;;;;;;;;;5014123;28;20022;-75
2023/07/20 05:35:50;;;;;;;5.68;3.03;;;;;;;;;;5015097;28;20036;-75
2023/07/20 05:38:15;;;;;;;7.95;2.85;;;;;;;;;;5015058;28;20440;-74
2023/07/20 05:40:44;;;;;;;6.57;2.97;;;;;;;;;;5014795;28;20021;-74
2023/07/20 05:43:10;;;;;;;13.02;3.13;;;;;;;;;;5013709;28;20021;-74
2023/07/20 05:45:35;;;;;;;8.27;3.10;;;;;;;;;;5014658;28;20457;-74
2023/07/20 05:48:00;;;;;;;9.00;2.90;;;;;;;;;;5013276;28;20501;-75
2023/07/20 05:50:26;;;;;;;7.65;2.85;;;;;;;;;;5013442;28;20033;-74
2023/07/20 05:52:54;;;;;;;8.67;3.10;;;;;;;;;;5014310;28;20033;-75
2023/07/20 05:55:20;;;;;;;7.88;2.80;;;;;;;;;;5013275;28;20862;-75
2023/07/20 05:57:46;;;;;;;7.95;2.83;;;;;;;;;;5014476;28;20065;-78
2023/07/20 06:00:12;;;;;;;5.95;2.83;;;;;;;;;;5012295;28;20026;-75
2023/07/20 06:02:38;;;;;;;7.93;2.72;;;;;;;;;;5013355;28;20095;-74
2023/07/20 06:05:04;;;;;;;6.28;2.83;;;;;;;;;;5013558;28;20037;-75
2023/07/20 06:07:31;;;;;;;5.00;3.45;;;;;;;;;;5011831;28;20022;-75
2023/07/20 06:09:56;;;;;;;5.15;2.58;;;;;;;;;;5013255;28;20037;-75
2023/07/20 06:12:21;;;;;;;4.37;2.80;;;;;;;;;;5013376;28;20042;-74
2023/07/20 06:14:47;;;;;;;6.13;2.60;;;;;;;;;;5013628;28;20302;-75
2023/07/20 06:17:12;;;;;;;8.82;2.75;;;;;;;;;;5011792;28;20264;-74
2023/07/20 06:19:37;;;;;;;7.47;2.60;;;;;;;;;;5013349;28;20030;-75
2023/07/20 06:22:02;;;;;;;5.05;2.92;;;;;;;;;;5012063;28;20654;-75
2023/07/20 06:24:28;;;;;;;6.43;2.67;;;;;;;;;;5013154;28;20029;-74
2023/07/20 06:26:53;;;;;;;8.48;3.10;;;;;;;;;;5013287;28;20058;-74
2023/07/20 06:29:19;;;;;;;7.30;3.10;;;;;;;;;;5011794;28;20080;-75
2023/07/20 06:31:44;;;;;;;7.88;3.70;;;;;;;;;;5012923;28;20018;-75
2023/07/20 06:34:09;;;;;;;4.93;3.13;;;;;;;;;;5012961;28;20508;-74
2023/07/20 06:36:35;;;;;;;11.20;3.67;;;;;;;;;;5012865;28;20497;-74
2023/07/20 06:39:00;;;;;;;9.88;3.47;;;;;;;;;;5012690;28;20260;-75
2023/07/20 06:41:25;;;;;;;4.85;3.35;;;;;;;;;;5012769;28;20030;-74
2023/07/20 06:43:52;;;;;;;6.18;3.30;;;;;;;;;;5014872;28;20022;-74
2023/07/20 06:46:17;;;;;;;5.00;3.10;;;;;;;;;;5016478;28;20033;-75
2023/07/20 06:48:42;;;;;;;8.98;2.92;;;;;;;;;;5016259;28;20026;-74
2023/07/20 06:51:08;;;;;;;4.53;2.80;;;;;;;;;;5016437;28;20034;-74
2023/07/20 06:53:34;;;;;;;4.10;2.35;;;;;;;;;;5016440;28;20046;-74
2023/07/20 06:55:59;;;;;;;6.18;2.15;;;;;;;;;;5016274;28;20453;-74
2023/07/20 06:58:25;;;;;;;3.20;2.03;;;;;;;;;;5016253;28;20362;-74
2023/07/20 07:00:51;;;;;;;4.82;2.22;;;;;;;;;;5016150;28;20762;-74
2023/07/20 07:03:16;;;;;;;4.88;2.50;;;;;;;;;;5016309;28;20026;-74
2023/07/20 07:05:41;;;;;;;5.03;2.13;;;;;;;;;;5016169;28;20053;-74
2023/07/20 07:08:07;;;;;;;8.93;2.60;;;;;;;;;;5016102;28;20109;-74
2023/07/20 07:10:34;;;;;;;4.88;2.20;;;;;;;;;;5016141;28;20267;-75
2023/07/20 07:13:00;;;;;;;5.60;2.20;;;;;;;;;;5016463;28;20022;-74
2023/07/20 07:15:26;;;;;;;4.32;1.92;;;;;;;;;;5015958;28;20121;-74
2023/07/20 07:17:51;;;;;;;2.85;1.90;;;;;;;;;;5016092;28;20030;-74
2023/07/20 07:20:17;;;;;;;4.97;1.73;;;;;;;;;;5016172;28;20072;-75
2023/07/20 07:22:43;;;;;;;4.25;1.90;;;;;;;;;;5016126;28;20373;-74
2023/07/20 07:25:09;;;;;;;2.72;1.98;;;;;;;;;;5014575;28;20439;-74
2023/07/20 07:27:34;;;;;;;2.40;1.70;;;;;;;;;;5015554;28;20026;-74
2023/07/20 07:30:00;;;;;;;6.32;1.85;;;;;;;;;;5016698;28;20041;-77
2023/07/20 07:32:25;;;;;;;2.63;1.90;;;;;;;;;;5017008;28;20022;-76
2023/07/20 07:34:50;;;;;;;4.10;2.13;;;;;;;;;;5016382;28;20270;-76
2023/07/20 07:37:17;;;;;;;4.30;1.80;;;;;;;;;;5014289;28;20026;-75
2023/07/20 07:39:42;;;;;;;5.45;2.10;;;;;;;;;;5015540;28;20742;-75
2023/07/20 07:42:07;;;;;;;7.30;1.80;;;;;;;;;;5015483;28;20025;-76
2023/07/20 07:44:32;;;;;;;2.65;1.90;;;;;;;;;;5015831;28;20734;-73
2023/07/20 07:46:58;;;;;;;2.40;1.90;;;;;;;;;;5014321;28;20022;-76
2023/07/20 07:49:23;;;;;;;3.80;1.90;;;;;;;;;;5015823;28;20274;-76
2023/07/20 07:51:48;;;;;;;2.15;1.58;;;;;;;;;;5015742;28;20283;-77
2023/07/20 07:54:14;;;;;;;3.33;1.70;;;;;;;;;;5014740;28;20034;-77
2023/07/20 07:56:39;;;;;;;3.58;1.80;;;;;;;;;;5014043;28;20448;-76
2023/07/20 07:59:04;;;;;;;3.45;1.60;;;;;;;;;;5015224;28;20092;-76
2023/07/20 08:01:30;;;;;;;3.60;1.70;;;;;;;;;;5014174;28;20048;-77
2023/07/20 08:03:55;;;;;;;3.95;1.77;;;;;;;;;;5015123;28;20263;-76
2023/07/20 08:06:21;;;;;;;3.10;1.50;;;;;;;;;;5013753;28;20026;-77
2023/07/20 08:08:46;;;;;;;5.70;2.00;;;;;;;;;;5014871;28;20022;-76
2023/07/20 08:11:11;;;;;;;3.25;2.40;;;;;;;;;;5013739;28;20255;-76
2023/07/20 08:13:36;;;;;;;4.93;2.10;;;;;;;;;;5014786;28;20084;-77
2023/07/20 08:16:05;;;;;;;6.67;2.30;;;;;;;;;;5015206;28;20072;-76
2023/07/20 08:18:31;;;;;;;4.43;2.25;;;;;;;;;;5013513;28;20294;-75
2023/07/20 08:20:56;;;;;;;3.05;1.92;;;;;;;;;;5013451;28;20022;-76
2023/07/20 08:23:21;;;;;;;5.80;2.92;;;;;;;;;;5014752;28;20374;-76
2023/07/20 08:25:46;;;;;;;3.10;2.30;;;;;;;;;;5014654;28;20504;-75
2023/07/20 08:28:16;;;;;;;3.65;2.40;;;;;;;;;;5014466;28;20034;-76
2023/07/20 08:30:43;;;;;;;5.25;2.67;;;;;;;;;;5014503;28;20022;-76
2023/07/20 08:33:10;;;;;;;4.40;2.33;;;;;;;;;;5013150;28;20058;-76
2023/07/20 08:35:35;;;;;;;3.40;2.63;;;;;;;;;;5014403;28;20057;-76
2023/07/20 08:38:00;;;;;;;5.90;2.50;;;;;;;;;;5012986;28;20084;-76
2023/07/20 08:40:26;;;;;;;5.03;2.20;;;;;;;;;;5014166;28;20033;-76
2023/07/20 08:42:53;;;;;;;5.32;2.70;;;;;;;;;;5014130;28;20044;-76
2023/07/20 08:45:19;;;;;;;7.30;2.65;;;;;;;;;;5014682;28;20401;-76
2023/07/20 08:47:45;;;;;;;6.85;3.15;;;;;;;;;;5014181;28;20034;-76
2023/07/20 08:50:12;;;;;;;3.35;2.70;;;;;;;;;;5014023;28;20038;-77
2023/07/20 08:52:37;;;;;;;4.30;2.95;;;;;;;;;;5012778;28;20026;-76
2023/07/20 08:55:03;;;;;;;3.25;2.80;;;;;;;;;;5013143;28;20481;-76
2023/07/20 08:57:32;;;;;;;5.20;2.65;;;;;;;;;;5013975;28;20048;-76
2023/07/20 08:59:59;;;;;;;3.85;2.70;;;;;;;;;;5014357;28;20051;-76
2023/07/20 09:02:26;;;;;;;3.33;2.78;;;;;;;;;;5013938;28;20114;-75
2023/07/20 09:04:51;;;;;;;4.15;2.78;;;;;;;;;;5014333;28;20025;-76
2023/07/20 09:07:17;;;;;;;4.78;2.30;;;;;;;;;;5013110;28;20026;-76
2023/07/20 09:09:42;;;;;;;3.75;2.90;;;;;;;;;;5013881;28;20404;-76
2023/07/20 09:12:15;;;;;;;7.30;2.60;;;;;;;;;;5013846;28;20030;-76
2023/07/20 09:14:43;;;;;;;3.75;2.42;;;;;;;;;;5012615;28;20022;-74
2023/07/20 09:17:12;;;;;;;2.65;2.05;;;;;;;;;;5013762;28;20507;-76
2023/07/20 09:19:38;;;;;;;3.45;2.28;;;;;;;;;;5014134;28;20481;-77
2023/07/20 09:22:05;;;;;;;2.95;2.10;;;;;;;;;;5013713;28;20058;-75
2023/07/20 09:24:32;;;;;;;2.95;1.90;;;;;;;;;;5013654;28;20022;-76
2023/07/20 09:27:01;;;;;;;2.75;2.10;;;;;;;;;;5013461;28;20030;-76
2023/07/20 09:29:26;;;;;;;3.28;2.30;;;;;;;;;;5012296;28;20021;-77
2023/07/20 09:32:03;;;;;;;2.78;2.20;;;;;;;;;;5013480;28;20046;-76
2023/07/20 09:34:31;;;;;;;3.60;2.10;;;;;;;;;;5013946;28;20080;-76
2023/07/20 09:36:57;;;;;;;2.97;2.00;;;;;;;;;;5012251;28;20034;-76
2023/07/20 09:39:22;;;;;;;4.13;2.17;;;;;;;;;;5013493;28;20560;-76
2023/07/20 09:41:48;;;;;;;4.50;1.95;;;;;;;;;;5013888;28;20029;-77
2023/07/20 09:44:15;;;;;;;3.58;2.22;;;;;;;;;;5013247;28;20022;-76
2023/07/20 09:46:48;;;;;;;2.72;1.92;;;;;;;;;;5012910;28;20057;-76
2023/07/20 09:49:17;;;;;;;5.20;2.08;;;;;;;;;;5011972;28;20044;-75
2023/07/20 09:51:43;;;;;;;2.45;2.10;;;;;;;;;;5012249;28;20128;-75
2023/07/20 09:54:10;;;;;;;2.58;2.25;;;;;;;;;;5012081;28;20025;-76
2023/07/20 09:56:36;;;;;;;2.95;2.00;;;;;;;;;;5013506;28;20030;-76
2023/07/20 09:59:01;;;;;;;4.32;2.00;;;;;;;;;;5015012;28;20447;-78
2023/07/20 10:01:27;;;;;;;1.90;1.52;;;;;;;;;;5011817;28;20037;-76
2023/07/20 10:03:56;;;;;;;2.70;1.98;;;;;;;;;;5011985;28;20041;-75
2023/07/20 10:06:24;;;;;;;2.67;2.33;;;;;;;;;;5012590;28;20026;-72
2023/07/20 10:08:52;;;;;;;3.88;2.42;;;;;;;;;;5014162;28;20052;-76
2023/07/20 10:11:21;;;;;;;57.58;6.43;;;;;;;;;;5013702;28;20026;-73
2023/07/20 10:13:49;;;;;;;27.90;5.40;;;;;;;;;;5013014;28;20040;-73
2023/07/20 10:16:30;;;;;;;32.17;3.78;;;;;;;;;;5012988;28;20432;-73
2023/07/20 10:19:07;;;;;;;5.35;1.70;;;;;;;;;;5016968;28;20062;-72
2023/07/20 10:21:35;;;;;;;2.78;2.00;;;;;;;;;;5017313;28;20056;-71
2023/07/20 10:24:01;;;;;;;4.03;3.35;;;;;;;;;;5017753;28;20022;-74
2023/07/20 10:26:26;;;;;;;5.13;3.08;;;;;;;;;;5016893;28;20081;-74
2023/07/20 10:28:52;;;;;;;4.38;3.45;;;;;;;;;;5016832;28;20036;-74
2023/07/20 10:31:18;;;;;;;6.70;3.85;;;;;;;;;;5015534;28;20040;-77
2023/07/20 10:33:44;;;;;;;9.15;4.60;;;;;;;;;;5015554;28;20030;-74
2023/07/20 10:36:12;;;;;;;5.43;4.60;;;;;;;;;;5016825;28;20037;-74
2023/07/20 10:38:43;;;;;;;6.53;4.18;;;;;;;;;;5017681;28;20037;-75
2023/07/20 10:41:24;;;;;;;4.95;3.55;;;;;;;;;;5016090;28;20029;-77
2023/07/20 10:43:50;;;;;;;6.68;3.65;;;;;;;;;;5014762;28;20032;-83
2023/07/20 10:46:43;;;;;;;4.93;4.40;;;;;;;;;;5016726;28;20592;-74
2023/07/20 10:49:10;;;;;;;6.50;4.40;;;;;;;;;;5015222;28;20030;-74
2023/07/20 10:51:40;;;;;;;8.40;4.45;;;;;;;;;;5016579;28;20033;-75
2023/07/20 10:54:27;;;;;;;4.70;4.20;;;;;;;;;;5016727;28;20026;-75
2023/07/20 10:56:55;;;;;;;5.25;3.67;;;;;;;;;;5009210;28;20038;-76
2023/07/20 10:59:24;;;;;;;4.65;3.47;;;;;;;;;;5016209;28;20034;-74
2023/07/20 11:01:55;;;;;;;3.45;2.80;;;;;;;;;;5016630;28;20032;-76
2023/07/20 11:04:40;;;;;;;4.25;2.97;;;;;;;;;;5017025;28;20030;-74
2023/07/20 11:07:06;;;;;;;3.42;3.03;;;;;;;;;;5016911;28;20022;-76
2023/07/20 11:09:36;;;;;;;4.43;3.30;;;;;;;;;;5017034;28;20403;-76
2023/07/20 11:12:15;;;;;;;3.28;2.78;;;;;;;;;;5015799;28;20022;-76
2023/07/20 11:14:54;;;;;;;3.88;2.70;;;;;;;;;;5015069;28;20022;-75
2023/07/20 11:17:22;;;;;;;4.55;3.03;;;;;;;;;;5016188;28;20061;-76
2023/07/20 11:19:55;;;;;;;6.47;3.08;;;;;;;;;;5016425;28;20025;-81
2023/07/20 11:22:21;;;;;;;2.95;2.70;;;;;;;;;;5014987;28;20022;-75
2023/07/20 11:24:48;;;;;;;2.85;2.58;;;;;;;;;;5015487;28;20420;-75
2023/07/20 11:27:13;;;;;;;2.90;2.60;;;;;;;;;;5013902;28;20080;-75
2023/07/20 11:29:39;;;;;;;3.73;2.93;;;;;;;;;;5014626;28;20026;-76
2023/07/20 11:32:04;;;;;;;3.58;2.80;;;;;;;;;;5015285;28;20824;-75
2023/07/20 11:34:31;;;;;;;3.50;2.75;;;;;;;;;;5015498;28;20053;-77
2023/07/20 11:36:56;;;;;;;5.68;3.30;;;;;;;;;;5015665;28;20030;-75
2023/07/20 11:39:22;;;;;;;4.97;3.30;;;;;;;;;;5015924;28;20378;-75
2023/07/20 11:41:51;;;;;;;3.05;2.75;;;;;;;;;;5015828;28;20033;-75
2023/07/20 11:44:17;;;;;;;4.25;3.03;;;;;;;;;;5016519;28;20036;-75
2023/07/20 11:46:44;;;;;;;4.90;3.25;;;;;;;;;;5015626;28;20037;-75
2023/07/20 11:49:10;;;;;;;5.43;2.95;;;;;;;;;;5015228;28;20501;-75
2023/07/20 11:51:37;;;;;;;3.65;3.15;;;;;;;;;;5014177;28;20036;-76
2023/07/20 11:54:03;;;;;;;4.38;3.05;;;;;;;;;;5015550;28;20029;-76
2023/07/20 11:56:29;;;;;;;3.38;3.08;;;;;;;;;;5015332;28;20076;-78
2023/07/20 11:58:56;;;;;;;4.97;3.27;;;;;;;;;;5013950;28;20026;-75
2023/07/20 12:01:23;;;;;;;3.13;2.70;;;;;;;;;;5015026;28;20304;-74
2023/07/20 12:03:49;;;;;;;3.47;3.13;;;;;;;;;;5015251;28;20540;-73
2023/07/20 12:06:15;;;;;;;5.13;3.28;;;;;;;;;;5015214;28;20033;-75
2023/07/20 12:08:44;;;;;;;4.00;3.60;;;;;;;;;;5014931;28;20034;-74
2023/07/20 12:11:10;;;;;;;7.15;3.40;;;;;;;;;;5015148;28;20033;-74
2023/07/20 12:13:43;;;;;;;3.83;3.53;;;;;;;;;;5014826;28;20030;-75
2023/07/20 12:16:16;;;;;;;2.90;2.50;;;;;;;;;;5013716;28;20026;-74
2023/07/20 12:18:43;;;;;;;;;;;;;;;;;;5013935;28;20485;-75
2023/07/20 12:21:09;;;;;;;3.28;2.95;;;;;;;;;;5013716;28;19909;-74
2023/07/20 12:23:37;;;;;;;5.72;3.28;;;;;;;;;;5013611;28;20160;-73
2023/07/20 12:26:03;;;;;;;3.75;2.85;;;;;;;;;;5014809;28;20508;-73
2023/07/20 12:28:31;;;;;;;5.25;3.75;;;;;;;;;;5013045;28;20128;-73
2023/07/20 12:30:56;;;;;;;5.28;3.83;;;;;;;;;;5014162;28;20562;-74
2023/07/20 12:33:22;;;;;;;5.00;3.63;;;;;;;;;;5013536;28;20037;-75
2023/07/20 12:35:49;;;;;;;6.18;3.30;;;;;;;;;;5014577;28;20232;-75
2023/07/20 12:38:14;;;;;;;5.45;3.50;;;;;;;;;;5014388;28;20072;-73
2023/07/20 12:40:40;;;;;;;5.68;3.42;;;;;;;;;;5014123;28;20432;-74
2023/07/20 12:43:06;;;;;;;4.38;3.78;;;;;;;;;;5014041;28;20052;-72
2023/07/20 12:45:31;;;;;;;4.20;3.80;;;;;;;;;;5011982;28;20033;-74
2023/07/20 12:47:57;;;;;;;8.32;3.80;;;;;;;;;;5014631;28;20504;-74
2023/07/20 12:50:22;;;;;;;5.73;4.07;;;;;;;;;;5014327;28;20034;-75
2023/07/20 12:52:47;;;;;;;5.15;2.78;;;;;;;;;;5013123;28;20283;-75
2023/07/20 12:55:12;;;;;;;4.13;3.33;;;;;;;;;;5012942;28;20488;-74
2023/07/20 12:57:38;;;;;;;3.67;2.80;;;;;;;;;;5014110;28;20280;-73
2023/07/20 13:00:05;;;;;;;5.07;2.80;;;;;;;;;;5014141;28;20266;-74
2023/07/20 13:02:32;;;;;;;4.05;2.80;;;;;;;;;;5014275;28;20447;-75
2023/07/20 13:04:58;;;;;;;4.60;2.70;;;;;;;;;;5013933;28;20083;-73
2023/07/20 13:07:34;;;;;;;5.85;2.40;;;;;;;;;;5012622;28;20120;-74
2023/07/20 13:10:00;;;;;;;4.78;2.55;;;;;;;;;;5014501;28;20030;-75
2023/07/20 13:12:30;;;;;;;6.07;2.17;;;;;;;;;;5013972;28;20420;-74
2023/07/20 13:14:56;;;;;;;3.85;2.30;;;;;;;;;;5014352;28;20038;-74
2023/07/20 13:17:25;;;;;;;2.30;2.10;;;;;;;;;;5013592;28;20445;-74
2023/07/20 13:19:50;;;;;;;2.97;2.40;;;;;;;;;;5013059;28;20040;-74
2023/07/20 13:22:15;;;;;;;2.63;2.25;;;;;;;;;;5012482;28;20018;-74
2023/07/20 13:24:41;;;;;;;2.60;2.17;;;;;;;;;;5013568;28;20022;-74
2023/07/20 13:27:06;;;;;;;2.38;2.13;;;;;;;;;;5013525;28;20428;-74
2023/07/20 13:29:32;;;;;;;2.47;2.15;;;;;;;;;;5013632;28;20022;-74
2023/07/20 13:31:58;;;;;;;3.33;1.83;;;;;;;;;;5013587;28;20026;-75
2023/07/20 13:34:23;;;;;;;2.05;1.80;;;;;;;;;;5013453;28;20523;-75
2023/07/20 13:36:49;;;;;;;4.15;1.98;;;;;;;;;;5013564;28;20022;-74
2023/07/20 13:39:14;;;;;;;4.03;2.10;;;;;;;;;;5013471;28;20030;-74
2023/07/20 13:41:39;;;;;;;2.40;1.83;;;;;;;;;;5013752;28;20026;-74
2023/07/20 13:44:05;;;;;;;2.92;1.80;;;;;;;;;;5013508;28;20051;-74
2023/07/20 13:46:30;;;;;;;2.23;1.93;;;;;;;;;;5012057;28;20033;-74
2023/07/20 13:48:55;;;;;;;3.50;1.80;;;;;;;;;;5012773;28;20271;-75
2023/07/20 13:51:20;;;;;;;1.70;1.60;;;;;;;;;;5010678;28;20025;-75
2023/07/20 13:53:47;;;;;;;2.00;1.80;;;;;;;;;;5011808;28;20028;-75
2023/07/20 13:56:13;;;;;;;2.90;1.60;;;;;;;;;;5011938;28;20645;-77
2023/07/20 13:58:38;;;;;;;3.92;1.63;;;;;;;;;;5012034;28;20018;-75
2023/07/20 14:01:03;;;;;;;2.38;1.63;;;;;;;;;;5011679;28;20041;-75
2023/07/20 14:03:28;;;;;;;2.40;1.70;;;;;;;;;;5011595;28;20076;-74
2023/07/20 14:05:54;;;;;;;2.47;1.77;;;;;;;;;;5011775;28;20028;-75
2023/07/20 14:08:19;;;;;;;4.20;1.70;;;;;;;;;;5012827;28;20100;-75
2023/07/20 14:10:44;;;;;;;2.58;1.60;;;;;;;;;;5011706;28;20259;-75
2023/07/20 14:13:09;;;;;;;2.33;1.60;;;;;;;;;;5011378;28;20025;-75
2023/07/20 14:15:35;;;;;;;2.47;1.70;;;;;;;;;;5012980;28;20731;-75
2023/07/20 14:18:00;;;;;;;1.52;1.42;;;;;;;;;;5013080;28;20333;-75
2023/07/20 14:20:25;;;;;;;2.47;1.50;;;;;;;;;;5013040;28;20026;-74
2023/07/20 14:22:54;;;;;;;1.30;1.20;;;;;;;;;;5013027;28;20023;-75
2023/07/20 14:25:19;;;;;;;3.10;1.60;;;;;;;;;;5013000;28;20481;-74
2023/07/20 14:27:44;;;;;;;2.37;1.20;;;;;;;;;;5012651;28;20033;-75
2023/07/20 14:30:10;;;;;;;2.55;1.40;;;;;;;;;;5013255;28;20748;-74
2023/07/20 14:32:35;;;;;;;1.70;1.30;;;;;;;;;;5012732;28;20030;-75
2023/07/20 14:35:01;;;;;;;1.83;1.30;;;;;;;;;;5013141;28;20109;-76
2023/07/20 14:37:26;;;;;;;1.50;1.13;;;;;;;;;;5012856;28;20663;-75
2023/07/20 14:39:51;;;;;;;3.70;1.30;;;;;;;;;;5012683;28;20049;-75